Time;durP1;ratioP1;P1;durP2;ratioP2;P2;SDS_P1;SDS_P2;PMS_P1;PMS_P2;Temp;Humidity;BMP_temperature;BMP_pressure;BME280_temperature;BME280_humidity;BME280_pressure;Samples;Min_cycle;Max_cycle;Signal;HPM_P1;HPM_P2
2022/03/03 00:01:08;;;;;;;26.25;14.63;;;;;;;-139.48;100.00;61774.03;5031178;28;19943;-75
2022/03/03 00:03:52;;;;;;;;;;;;;;;-139.48;100.00;61774.03;5031625;28;20133;-75
2022/03/03 00:06:36;;;;;;;23.15;12.25;;;;;;;-139.48;100.00;61774.03;5033982;28;19924;-75
2022/03/03 00:09:20;;;;;;;26.38;14.05;;;;;;;-139.48;100.00;61774.03;5034869;28;20053;-76
2022/03/03 00:12:04;;;;;;;24.83;14.80;;;;;;;-139.48;100.00;61774.03;5020677;28;20559;-75
2022/03/03 00:14:48;;;;;;;27.83;15.52;;;;;;;-139.48;100.00;61774.03;5034599;28;20418;-76
2022/03/03 00:17:32;;;;;;;;;;;;;;;-139.48;100.00;61774.03;5035892;28;20049;-76
2022/03/03 00:20:16;;;;;;;28.73;16.33;;;;;;;-139.48;100.00;61774.03;5034360;28;20298;-76
2022/03/03 00:23:00;;;;;;;32.85;16.05;;;;;;;-139.48;100.00;61774.03;5034299;28;20132;-76
2022/03/03 00:25:44;;;;;;;;;;;;;;;-139.48;100.00;61774.03;5035844;28;20056;-75
2022/03/03 00:28:28;;;;;;;31.58;15.90;;;;;;;-139.48;100.00;61774.03;5020337;28;19963;-75
2022/03/03 00:31:12;;;;;;;30.73;16.85;;;;;;;-139.48;100.00;61774.03;5034064;28;20104;-75
2022/03/03 00:33:56;;;;;;;;;;;;;;;-139.48;100.00;61774.03;5036285;28;20064;-75
2022/03/03 00:36:41;;;;;;;31.25;15.73;;;;;;;-139.48;100.00;61774.03;5034239;28;19920;-75
2022/03/03 00:39:25;;;;;;;29.98;15.55;;;;;;;-139.48;100.00;61774.03;5035263;28;20044;-75
2022/03/03 00:42:09;;;;;;;28.63;15.73;;;;;;;-139.48;100.00;61774.03;5019822;28;20072;-75
2022/03/03 00:44:53;;;;;;;28.75;16.13;;;;;;;-139.48;100.00;61774.03;5034347;28;20516;-75
2022/03/03 00:47:37;;;;;;;32.60;16.85;;;;;;;-139.48;100.00;61774.03;5034802;28;20147;-75
2022/03/03 00:50:21;;;;;;;;;;;;;;;-139.48;100.00;61774.03;5035397;28;20179;-76
2022/03/03 00:53:05;;;;;;;31.42;15.60;;;;;;;-139.48;100.00;61774.03;5033921;28;19920;-75
2022/03/03 00:55:49;;;;;;;;;;;;;;;-139.48;100.00;61774.03;5034433;28;20051;-76
2022/03/03 00:58:33;;;;;;;29.65;15.05;;;;;;;-139.48;100.00;61774.03;5034926;28;19974;-75
2022/03/03 01:01:17;;;;;;;25.45;13.90;;;;;;;-139.48;100.00;61774.03;5033576;28;20099;-75
2022/03/03 01:04:01;;;;;;;32.50;15.35;;;;;;;-139.48;100.00;61774.03;5033783;28;20099;-75
2022/03/03 01:06:45;;;;;;;;;;;;;;;-139.48;100.00;61774.03;5035130;28;20076;-75
2022/03/03 01:09:29;;;;;;;26.95;15.13;;;;;;;-139.48;100.00;61774.03;5019481;28;20408;-75
2022/03/03 01:12:12;;;;;;;29.92;16.40;;;;;;;-139.48;100.00;61774.03;5034630;28;20051;-75
2022/03/03 01:14:56;;;;;;;;;;;;;;;-139.48;100.00;61774.03;5033939;28;20504;-75
2022/03/03 01:17:40;;;;;;;30.08;15.93;;;;;;;-139.48;100.00;61774.03;5033421;28;19920;-75
2022/03/03 01:20:24;;;;;;;;;;;;;;;-139.48;100.00;61774.03;5033731;28;20056;-76
2022/03/03 01:23:08;;;;;;;30.92;16.52;;;;;;;-139.48;100.00;61774.03;5033369;28;20051;-75
2022/03/03 01:25:52;;;;;;;;;;;;;;;-139.48;100.00;61774.03;5033646;28;20052;-75
2022/03/03 01:28:36;;;;;;;30.83;17.08;;;;;;;-139.48;100.00;61774.03;5033017;28;19967;-75
2022/03/03 01:31:19;;;;;;;;;;;;;;;-139.48;100.00;61774.03;5033430;28;20049;-75
2022/03/03 01:34:03;;;;;;;36.10;18.37;;;;;;;-139.48;100.00;61774.03;5034115;28;19920;-76
2022/03/03 01:36:47;;;;;;;37.58;16.98;;;;;;;-139.48;100.00;61774.03;5032963;28;20257;-76
2022/03/03 01:39:31;;;;;;;;;;;;;;;-139.48;100.00;61774.03;5033540;28;20052;-74
2022/03/03 01:42:16;;;;;;;27.27;13.02;;;;;;;-139.48;100.00;61774.03;5018781;28;20446;-76
2022/03/03 01:45:00;;;;;;;35.03;17.60;;;;;;;-139.48;100.00;61774.03;5032955;28;20044;-75
2022/03/03 01:47:44;;;;;;;31.17;16.08;;;;;;;-139.48;100.00;61774.03;5032618;28;20052;-76
2022/03/03 01:50:28;;;;;;;30.15;15.35;;;;;;;-139.48;100.00;61774.03;5032952;28;20099;-74
2022/03/03 01:53:12;;;;;;;34.97;18.17;;;;;;;-139.48;100.00;61774.03;5018866;28;20051;-75
2022/03/03 01:55:56;;;;;;;32.80;16.98;;;;;;;-139.48;100.00;61774.03;5018646;28;20057;-75
2022/03/03 01:58:40;;;;;;;;;;;;;;;-139.48;100.00;61774.03;5019496;28;20048;-75
2022/03/03 02:01:24;;;;;;;21.90;12.98;;;;;;;-139.48;100.00;61774.03;5032707;28;19920;-74
2022/03/03 02:04:09;;;;;;;35.10;17.63;;;;;;;-139.48;100.00;61774.03;5018921;28;20084;-75
2022/03/03 02:06:53;;;;;;;30.65;16.92;;;;;;;-139.48;100.00;61774.03;5032542;28;20084;-76
2022/03/03 02:09:39;;;;;;;30.70;17.48;;;;;;;-139.48;100.00;61774.03;5018597;28;20045;-76
2022/03/03 02:12:24;;;;;;;34.47;17.40;;;;;;;-139.48;100.00;61774.03;5032234;28;20524;-76
2022/03/03 02:15:14;;;;;;;;;;;;;;;-139.48;100.00;61774.03;5033696;28;20508;-75
2022/03/03 02:17:59;;;;;;;30.33;16.55;;;;;;;-139.48;100.00;61774.03;5033324;28;20031;-75
2022/03/03 02:20:44;;;;;;;34.33;17.13;;;;;;;-139.48;100.00;61774.03;5033143;28;20092;-76
2022/03/03 02:23:28;;;;;;;32.00;16.40;;;;;;;-139.48;100.00;61774.03;5032278;28;20094;-75
2022/03/03 02:26:12;;;;;;;;;;;;;;;-139.48;100.00;61774.03;5033652;28;20072;-75
2022/03/03 02:28:56;;;;;;;35.80;17.10;;;;;;;-139.48;100.00;61774.03;5031519;28;19947;-75
2022/03/03 02:31:40;;;;;;;;;;;;;;;-139.48;100.00;61774.03;5033299;28;20567;-75
2022/03/03 02:34:24;;;;;;;32.53;17.35;;;;;;;-139.48;100.00;61774.03;5033396;28;20002;-75
2022/03/03 02:37:07;;;;;;;;;;;;;;;-139.48;100.00;61774.03;5033555;28;20044;-75
2022/03/03 02:39:51;;;;;;;35.47;17.20;;;;;;;-139.48;100.00;61774.03;5032112;28;19920;-75
2022/03/03 02:42:35;;;;;;;;;;;;;;;-139.48;100.00;61774.03;5032344;28;20052;-75
2022/03/03 02:45:20;;;;;;;23.73;12.68;;;;;;;-139.48;100.00;61774.03;5031801;28;19920;-75
2022/03/03 02:48:04;;;;;;;34.00;17.80;;;;;;;-139.48;100.00;61774.03;5038744;22;20143;-75
2022/03/03 02:50:48;;;;;;;40.70;18.30;;;;;;;-139.48;100.00;61774.03;5012177;28;20139;-75
2022/03/03 02:53:33;;;;;;;35.03;18.52;;;;;;;-139.48;100.00;61774.03;5012158;28;20052;-75
2022/03/03 02:56:17;;;;;;;38.30;18.80;;;;;;;-139.48;100.00;61774.03;5012276;28;20117;-73
2022/03/03 02:59:00;;;;;;;34.85;18.80;;;;;;;-139.48;100.00;61774.03;5013098;28;20168;-76
2022/03/03 03:01:44;;;;;;;32.15;17.88;;;;;;;-139.48;100.00;61774.03;5012033;28;20080;-72
2022/03/03 03:04:28;;;;;;;33.42;18.60;;;;;;;-139.48;100.00;61774.03;5012790;28;20080;-74
2022/03/03 03:07:12;;;;;;;;;;;;;;;-139.48;100.00;61774.03;5012240;28;20037;-75
2022/03/03 03:09:56;;;;;;;33.30;17.23;;;;;;;-139.48;100.00;61774.03;5011832;28;20010;-75
2022/03/03 03:12:41;;;;;;;32.80;17.55;;;;;;;-139.48;100.00;61774.03;5012743;28;20133;-75
2022/03/03 03:15:26;;;;;;;35.72;17.58;;;;;;;-139.48;100.00;61774.03;5011761;28;20064;-74
2022/03/03 03:18:17;;;;;;;;;;;;;;;-139.48;100.00;61774.03;5012321;28;20517;-75
2022/03/03 03:21:00;;;;;;;54.65;19.00;;;;;;;-139.48;100.00;61774.03;5011656;28;20305;-75
2022/03/03 03:23:44;;;;;;;;;;;;;;;-139.48;100.00;61774.03;5013291;28;20409;-74
2022/03/03 03:26:28;;;;;;;32.60;17.55;;;;;;;-139.48;100.00;61774.03;5012025;28;19987;-75
2022/03/03 03:29:12;;;;;;;36.38;18.95;;;;;;;-139.48;100.00;61774.03;5013074;28;20052;-75
2022/03/03 03:31:56;;;;;;;;;;;;;;;-139.48;100.00;61774.03;5013264;28;20053;-75
2022/03/03 03:34:40;;;;;;;38.60;18.13;;;;;;;-139.48;100.00;61774.03;5011807;28;19920;-75
2022/03/03 03:37:24;;;;;;;;;;;;;;;-139.48;100.00;61774.03;5012927;28;20068;-75
2022/03/03 03:40:09;;;;;;;35.08;17.55;;;;;;;-139.48;100.00;61774.03;5011703;28;19959;-75
2022/03/03 03:42:53;;;;;;;38.42;17.98;;;;;;;-139.48;100.00;61774.03;5015736;28;20057;-74
2022/03/03 03:45:37;;;;;;;41.30;19.52;;;;;;;-139.48;100.00;61774.03;5015233;28;20119;-75
2022/03/03 03:48:20;;;;;;;;;;;;;;;-139.48;100.00;61774.03;5016358;28;20072;-75
2022/03/03 03:51:04;;;;;;;34.75;18.38;;;;;;;-139.48;100.00;61774.03;5016408;28;19940;-75
2022/03/03 03:53:48;;;;;;;37.22;19.55;;;;;;;-139.48;100.00;61774.03;5015276;28;20052;-75
2022/03/03 03:56:33;;;;;;;41.67;19.17;;;;;;;-139.48;100.00;61774.03;5015203;28;20154;-75
2022/03/03 03:59:17;;;;;;;35.42;19.10;;;;;;;-139.48;100.00;61774.03;5015920;28;20045;-75
2022/03/03 04:02:01;;;;;;;;;;;;;;;-139.48;100.00;61774.03;5001723;28;20088;-74
2022/03/03 04:04:45;;;;;;;33.22;16.88;;;;;;;-139.48;100.00;61774.03;5015118;28;19920;-75
2022/03/03 04:07:29;;;;;;;;;;;;;;;-139.48;100.00;61774.03;5015205;28;20080;-75
2022/03/03 04:10:13;;;;;;;23.48;12.93;;;;;;;-139.48;100.00;61774.03;5016066;28;19924;-75
2022/03/03 04:12:57;;;;;;;;;;;;;;;-139.48;100.00;61774.03;5015350;28;20095;-75
2022/03/03 04:15:41;;;;;;;36.80;17.80;;;;;;;-139.48;100.00;61774.03;5015674;28;20289;-74
2022/03/03 04:18:25;;;;;;;37.00;19.35;;;;;;;-139.48;100.00;61774.03;5015579;28;20131;-75
2022/03/03 04:21:09;;;;;;;;;;;;;;;-139.48;100.00;61774.03;5015026;28;20044;-75
2022/03/03 04:23:53;;;;;;;32.90;17.73;;;;;;;-139.48;100.00;61774.03;5014784;28;20030;-75
2022/03/03 04:26:37;;;;;;;;;;;;;;;-139.48;100.00;61774.03;5014740;28;20433;-75
2022/03/03 04:29:21;;;;;;;34.17;17.80;;;;;;;-139.48;100.00;61774.03;5014531;28;19972;-74
2022/03/03 04:32:05;;;;;;;31.20;17.92;;;;;;;-139.48;100.00;61774.03;5015628;28;20057;-74
2022/03/03 04:34:49;;;;;;;36.08;17.80;;;;;;;-139.48;100.00;61774.03;5015966;28;20060;-73
2022/03/03 04:37:33;;;;;;;37.38;17.67;;;;;;;-139.48;100.00;61774.03;5014266;28;20051;-75
2022/03/03 04:40:17;;;;;;;37.40;18.10;;;;;;;-139.48;100.00;61774.03;5000450;28;20509;-75
2022/03/03 04:43:01;;;;;;;38.00;20.25;;;;;;;-139.48;100.00;61774.03;5000839;28;20052;-75
2022/03/03 04:45:45;;;;;;;;;;;;;;;-139.48;100.00;61774.03;5014927;28;20382;-75
2022/03/03 04:48:31;;;;;;;42.75;20.35;;;;;;;-139.48;100.00;61774.03;5013827;28;20373;-73
2022/03/03 04:51:16;;;;;;;36.55;19.13;;;;;;;-139.48;100.00;61774.03;5015082;28;20053;-75
2022/03/03 04:53:59;;;;;;;34.80;18.40;;;;;;;-139.48;100.00;61774.03;5014206;28;20057;-75
2022/03/03 04:56:44;;;;;;;36.22;18.42;;;;;;;-139.48;100.00;61774.03;5015120;28;20053;-72
2022/03/03 04:59:27;;;;;;;;;;;;;;;-139.48;100.00;61774.03;5000701;28;20547;-75
2022/03/03 05:02:11;;;;;;;25.35;13.75;;;;;;;-139.48;100.00;61774.03;5014037;28;19919;-75
2022/03/03 05:04:56;;;;;;;36.05;18.58;;;;;;;-139.48;100.00;61774.03;5014401;28;20132;-75
2022/03/03 05:07:40;;;;;;;42.65;20.67;;;;;;;-139.48;100.00;61774.03;5013633;28;20132;-75
2022/03/03 05:10:24;;;;;;;;;;;;;;;-139.48;100.00;61774.03;5015307;28;20044;-75
2022/03/03 05:13:08;;;;;;;39.05;19.08;;;;;;;-139.48;100.00;61774.03;5013570;28;19940;-74
2022/03/03 05:15:52;;;;;;;36.95;18.85;;;;;;;-139.48;100.00;61774.03;5015464;28;20460;-75
2022/03/03 05:18:36;;;;;;;34.50;18.25;;;;;;;-139.48;100.00;61774.03;5013377;28;20045;-74
2022/03/03 05:21:20;;;;;;;32.85;17.98;;;;;;;-139.48;100.00;61774.03;5013763;28;20515;-75
2022/03/03 05:24:04;;;;;;;37.85;19.23;;;;;;;-139.48;100.00;61774.03;5014673;28;20048;-75
2022/03/03 05:26:50;;;;;;;42.13;19.90;;;;;;;-139.48;100.00;61774.03;5013264;28;20049;-75
2022/03/03 05:29:34;;;;;;;40.08;19.40;;;;;;;-139.48;100.00;61774.03;5013544;28;20111;-75
2022/03/03 05:32:19;;;;;;;36.70;19.67;;;;;;;-139.48;100.00;61774.03;4999739;28;20056;-75
2022/03/03 05:35:04;;;;;;;38.85;20.65;;;;;;;-139.48;100.00;61774.03;4999453;28;20052;-75
2022/03/03 05:37:48;;;;;;;39.38;19.40;;;;;;;-139.48;100.00;61774.03;5013042;28;20564;-74
2022/03/03 05:40:32;;;;;;;36.25;19.83;;;;;;;-139.48;100.00;61774.03;5014659;28;20406;-75
2022/03/03 05:43:16;;;;;;;;;;;;;;;-139.48;100.00;61774.03;5013688;28;20107;-74
2022/03/03 05:46:00;;;;;;;29.42;15.70;;;;;;;-139.48;100.00;61774.03;5013111;28;20300;-75
2022/03/03 05:48:46;;;;;;;34.20;17.25;;;;;;;-139.48;100.00;61774.03;5012864;28;20559;-73
2022/03/03 05:51:31;;;;;;;33.42;19.02;;;;;;;-139.48;100.00;61774.03;5013146;28;20053;-75
2022/03/03 05:54:15;;;;;;;40.58;18.65;;;;;;;-139.48;100.00;61774.03;4999161;28;20048;-72
2022/03/03 05:57:01;;;;;;;37.10;19.60;;;;;;;-139.48;100.00;61774.03;5013923;28;20465;-74
2022/03/03 05:59:47;;;;;;;34.70;18.60;;;;;;;-139.48;100.00;61774.03;5012995;28;20469;-74
2022/03/03 06:02:31;;;;;;;35.65;17.92;;;;;;;-139.48;100.00;61774.03;5012619;28;20143;-74
2022/03/03 06:05:35;;;;;;;34.45;17.75;;;;;;;-139.48;100.00;61774.03;5012334;28;20053;-74
2022/03/03 06:08:23;;;;;;;41.72;19.83;;;;;;;-139.48;100.00;61774.03;5012446;28;20096;-74
2022/03/03 06:11:12;;;;;;;36.65;19.50;;;;;;;-139.48;100.00;61774.03;5012589;28;20100;-74
2022/03/03 06:14:05;;;;;;;38.50;19.85;;;;;;;-139.48;100.00;61774.03;5012797;28;20053;-74
2022/03/03 06:16:49;;;;;;;37.65;20.08;;;;;;;-139.48;100.00;61774.03;5013452;28;20184;-74
2022/03/03 06:19:39;;;;;;;38.65;19.48;;;;;;;-139.48;100.00;61774.03;5012708;28;20056;-74
2022/03/03 06:22:23;;;;;;;49.30;20.48;;;;;;;-139.48;100.00;61774.03;5012654;28;20080;-74
2022/03/03 06:25:07;;;;;;;;;;;;;;;-139.48;100.00;61774.03;5014226;28;20080;-74
2022/03/03 06:27:51;;;;;;;;;;;;;;;-139.48;100.00;61774.03;4998712;28;19923;-74
2022/03/03 06:30:35;;;;;;;34.78;17.88;;;;;;;-139.48;100.00;61774.03;5012458;28;19920;-74
2022/03/03 06:33:19;;;;;;;37.42;19.83;;;;;;;-139.48;100.00;61774.03;5012699;28;20510;-74
2022/03/03 06:36:04;;;;;;;40.97;21.17;;;;;;;-139.48;100.00;61774.03;5012436;28;20183;-72
2022/03/03 06:38:48;;;;;;;41.00;21.75;;;;;;;-139.48;100.00;61774.03;5013687;28;20049;-74
2022/03/03 06:41:32;;;;;;;45.13;22.42;;;;;;;-139.48;100.00;61774.03;5013406;28;20137;-74
2022/03/03 06:44:16;;;;;;;40.53;21.35;;;;;;;-139.48;100.00;61774.03;5013329;28;20104;-74
2022/03/03 06:47:00;;;;;;;;;;;;;;;-139.48;100.00;61774.03;5012397;28;20509;-74
2022/03/03 06:49:45;;;;;;;;;;;;;;;-139.48;100.00;61774.03;4998750;28;20329;-74
2022/03/03 06:52:31;;;;;;;31.58;14.93;;;;;;;-139.48;100.00;61774.03;5012317;28;19963;-74
2022/03/03 06:55:20;;;;;;;40.50;21.08;;;;;;;-139.48;100.00;61774.03;5012411;28;20079;-75
2022/03/03 06:58:04;;;;;;;41.60;20.70;;;;;;;-139.48;100.00;61774.03;5011806;28;20111;-74
2022/03/03 07:00:49;;;;;;;;;;;;;;;-139.48;100.00;61774.03;5012345;28;20104;-74
2022/03/03 07:03:34;;;;;;;43.05;19.85;;;;;;;-139.48;100.00;61774.03;5012028;28;20020;-74
2022/03/03 07:06:18;;;;;;;37.03;20.73;;;;;;;-139.48;100.00;61774.03;5012983;28;20132;-74
2022/03/03 07:09:03;;;;;;;38.60;21.05;;;;;;;-139.48;100.00;61774.03;5011896;28;20141;-75
2022/03/03 07:11:48;;;;;;;34.72;18.40;;;;;;;-139.48;100.00;61774.03;5012035;28;20103;-73
2022/03/03 07:14:32;;;;;;;35.92;19.38;;;;;;;-139.48;100.00;61774.03;5012342;28;20104;-74
2022/03/03 07:17:31;;;;;;;40.80;19.77;;;;;;;-139.48;100.00;61774.03;5001896;28;20048;-74
2022/03/03 07:20:27;;;;;;;42.38;21.60;;;;;;;-139.48;100.00;61774.03;5016078;28;20045;-74
2022/03/03 07:23:35;;;;;;;39.35;20.20;;;;;;;-139.48;100.00;61774.03;5015922;28;20053;-74
2022/03/03 07:26:20;;;;;;;33.88;19.02;;;;;;;-139.48;100.00;61774.03;5015897;28;20091;-74
2022/03/03 07:29:05;;;;;;;38.05;20.85;;;;;;;-139.48;100.00;61774.03;5015678;28;20096;-73
2022/03/03 07:31:56;;;;;;;33.67;19.45;;;;;;;-139.48;100.00;61774.03;5015756;28;20107;-74
2022/03/03 07:34:41;;;;;;;45.90;21.88;;;;;;;-139.48;100.00;61774.03;5016685;28;20096;-74
2022/03/03 07:37:31;;;;;;;36.47;20.10;;;;;;;-139.48;100.00;61774.03;5015396;28;20045;-74
2022/03/03 07:40:16;;;;;;;41.67;20.67;;;;;;;-139.48;100.00;61774.03;5015699;28;20045;-73
2022/03/03 07:43:00;;;;;;;41.92;21.50;;;;;;;-139.48;100.00;61774.03;5015615;28;20136;-74
2022/03/03 07:45:46;;;;;;;34.20;20.63;;;;;;;-139.48;100.00;61774.03;5001489;28;20073;-74
2022/03/03 07:48:31;;;;;;;42.97;21.38;;;;;;;-139.48;100.00;61774.03;5015075;28;20191;-74
2022/03/03 07:51:15;;;;;;;41.30;21.15;;;;;;;-139.48;100.00;61774.03;5015207;28;20048;-74
2022/03/03 07:53:59;;;;;;;;;;;;;;;-139.48;100.00;61774.03;5015809;28;20112;-74
2022/03/03 07:56:48;;;;;;;40.53;21.77;;;;;;;-139.48;100.00;61774.03;5016227;28;19936;-74
2022/03/03 07:59:34;;;;;;;41.78;21.83;;;;;;;-139.48;100.00;61774.03;5016341;28;20080;-73
2022/03/03 08:02:22;;;;;;;37.55;21.63;;;;;;;-139.48;100.00;61774.03;5016487;28;20087;-74
2022/03/03 08:05:07;;;;;;;36.15;20.67;;;;;;;-139.48;100.00;61774.03;5016131;28;20103;-74
2022/03/03 08:07:54;;;;;;;43.53;23.42;;;;;;;-139.48;100.00;61774.03;5015920;28;20048;-73
2022/03/03 08:10:40;;;;;;;51.40;23.90;;;;;;;-139.48;100.00;61774.03;5015092;28;20099;-74
2022/03/03 08:13:26;;;;;;;41.78;22.75;;;;;;;-139.48;100.00;61774.03;5001297;28;20076;-73
2022/03/03 08:16:10;;;;;;;44.08;22.65;;;;;;;-139.48;100.00;61774.03;5014953;28;20128;-74
2022/03/03 08:18:57;;;;;;;45.55;22.80;;;;;;;-139.48;100.00;61774.03;5014666;28;20140;-73
2022/03/03 08:21:45;;;;;;;39.13;21.42;;;;;;;-139.48;100.00;61774.03;5015856;28;20057;-74
2022/03/03 08:24:29;;;;;;;38.75;21.13;;;;;;;-139.48;100.00;61774.03;5000867;28;20216;-74
2022/03/03 08:27:13;;;;;;;37.15;20.42;;;;;;;-139.48;100.00;61774.03;5013663;28;20049;-73
2022/03/03 08:29:58;;;;;;;38.30;21.65;;;;;;;-139.48;100.00;61774.03;5015660;28;20081;-74
2022/03/03 08:32:49;;;;;;;39.00;22.25;;;;;;;-139.48;100.00;61774.03;5014495;28;20056;-74
2022/03/03 08:35:39;;;;;;;39.65;22.75;;;;;;;-139.48;100.00;61774.03;5014307;28;20045;-74
2022/03/03 08:38:30;;;;;;;37.25;21.52;;;;;;;-139.48;100.00;61774.03;5015247;28;20053;-74
2022/03/03 08:41:17;;;;;;;40.42;21.25;;;;;;;-139.48;100.00;61774.03;5014572;28;20076;-74
2022/03/03 08:44:02;;;;;;;38.33;20.75;;;;;;;-139.48;100.00;61774.03;5014453;28;20052;-74
2022/03/03 08:46:47;;;;;;;43.17;22.95;;;;;;;-139.48;100.00;61774.03;5015021;28;20049;-73
2022/03/03 08:49:39;;;;;;;36.60;21.77;;;;;;;-139.48;100.00;61774.03;5049433;23;20056;-71
2022/03/03 08:52:23;;;;;;;37.88;20.73;;;;;;;-139.48;100.00;61774.03;5033821;28;20048;-71
2022/03/03 08:55:09;;;;;;;37.90;22.00;;;;;;;-139.48;100.00;61774.03;5033874;28;20103;-71
2022/03/03 08:57:54;;;;;;;43.22;21.73;;;;;;;-139.48;100.00;61774.03;5033906;28;20103;-70
2022/03/03 09:00:38;;;;;;;36.25;20.95;;;;;;;-139.48;100.00;61774.03;5033793;28;20111;-71
2022/03/03 09:03:23;;;;;;;;;;;;;;;-139.48;100.00;61774.03;5033938;28;20044;-71
2022/03/03 09:06:07;;;;;;;;;;;;;;;-139.48;100.00;61774.03;5033993;28;20008;-69
2022/03/03 09:08:51;;;;;;;43.70;23.20;;;;;;;-139.48;100.00;61774.03;5033430;28;19971;-71
2022/03/03 09:11:35;;;;;;;34.38;20.05;;;;;;;-139.48;100.00;61774.03;5033308;28;20083;-72
2022/03/03 09:14:19;;;;;;;;;;;;;;;-139.48;100.00;61774.03;5034017;28;20056;-71
2022/03/03 09:17:03;;;;;;;32.00;19.07;;;;;;;-139.48;100.00;61774.03;5034512;28;19919;-72
2022/03/03 09:19:47;;;;;;;36.58;19.77;;;;;;;-139.48;100.00;61774.03;5033204;28;20367;-69
2022/03/03 09:22:31;;;;;;;33.50;18.25;;;;;;;-139.48;100.00;61774.03;5033121;28;20056;-70
2022/03/03 09:25:15;;;;;;;;;;;;;;;-139.48;100.00;61774.03;5033816;28;20068;-72
2022/03/03 09:27:59;;;;;;;33.80;18.63;;;;;;;-139.48;100.00;61774.03;5033265;28;19940;-72
2022/03/03 09:30:42;;;;;;;36.83;20.10;;;;;;;-139.48;100.00;61774.03;5034511;28;20346;-71
2022/03/03 09:33:27;;;;;;;35.30;19.10;;;;;;;-139.48;100.00;61774.03;5034558;28;20099;-71
2022/03/03 09:36:11;;;;;;;29.60;18.67;;;;;;;-139.48;100.00;61774.03;5032989;28;20623;-70
2022/03/03 09:38:55;;;;;;;32.05;18.52;;;;;;;-139.48;100.00;61774.03;5032742;28;20084;-70
2022/03/03 09:41:39;;;;;;;25.58;16.95;;;;;;;-139.48;100.00;61774.03;5033104;28;20056;-73
2022/03/03 09:44:26;;;;;;;27.55;17.58;;;;;;;-139.48;100.00;61774.03;5034279;28;20213;-73
2022/03/03 09:47:13;;;;;;;24.38;16.17;;;;;;;-139.48;100.00;61774.03;5032930;28;20051;-72
2022/03/03 09:49:59;;;;;;;24.50;17.10;;;;;;;-139.48;100.00;61774.03;5032649;28;20055;-73
2022/03/03 09:52:43;;;;;;;26.45;17.25;;;;;;;-139.48;100.00;61774.03;5032833;28;20091;-73
2022/03/03 09:55:27;;;;;;;30.60;19.60;;;;;;;-139.48;100.00;61774.03;5032798;28;20528;-72
2022/03/03 09:58:11;;;;;;;29.85;18.50;;;;;;;-139.48;100.00;61774.03;5033762;28;20099;-70
2022/03/03 10:00:56;;;;;;;29.23;18.63;;;;;;;-139.48;100.00;61774.03;5032698;28;20064;-71
2022/03/03 10:03:41;;;;;;;25.75;18.33;;;;;;;-139.48;100.00;61774.03;5033538;28;20166;-73
2022/03/03 10:06:25;;;;;;;26.73;19.17;;;;;;;-139.48;100.00;61774.03;5032430;28;20044;-69
2022/03/03 10:09:10;;;;;;;54.53;30.70;;;;;;;-139.48;100.00;61774.03;5033467;28;20095;-72
2022/03/03 10:11:59;;;;;;;24.95;18.83;;;;;;;-139.48;100.00;61774.03;5033524;28;20076;-72
2022/03/03 10:14:48;;;;;;;27.15;19.83;;;;;;;-139.48;100.00;61774.03;5032442;28;20060;-72
2022/03/03 10:17:36;;;;;;;27.25;19.85;;;;;;;-139.48;100.00;61774.03;5032178;28;20099;-72
2022/03/03 10:20:19;;;;;;;31.38;19.90;;;;;;;-139.48;100.00;61774.03;5033189;28;20064;-72
2022/03/03 10:23:08;;;;;;;26.73;20.10;;;;;;;-139.48;100.00;61774.03;5032411;28;20044;-72
2022/03/03 10:25:53;;;;;;;23.48;18.98;;;;;;;-139.48;100.00;61774.03;5032119;28;20103;-67
2022/03/03 10:28:38;;;;;;;34.67;24.20;;;;;;;-139.48;100.00;61774.03;5031873;28;20083;-69
2022/03/03 10:31:22;;;;;;;25.95;20.92;;;;;;;-139.48;100.00;61774.03;5031904;28;20047;-69
2022/03/03 10:34:14;;;;;;;;;;;;;;;-139.48;100.00;61774.03;5032153;28;20409;-67
2022/03/03 10:37:07;;;;;;;25.25;19.95;;;;;;;-139.48;100.00;61774.03;5031969;28;20277;-68
2022/03/03 10:40:00;;;;;;;27.20;20.42;;;;;;;-139.48;100.00;61774.03;5018220;28;20115;-69
2022/03/03 10:42:46;;;;;;;24.48;19.70;;;;;;;-139.48;100.00;61774.03;5032823;28;20052;-69
2022/03/03 10:45:30;;;;;;;27.00;20.52;;;;;;;-139.48;100.00;61774.03;5032994;28;20045;-69
2022/03/03 10:48:21;;;;;;;26.63;18.80;;;;;;;-139.48;100.00;61774.03;5032683;28;20056;-69
2022/03/03 10:51:06;;;;;;;26.63;19.88;;;;;;;-139.48;100.00;61774.03;5032677;28;20124;-67
2022/03/03 10:53:56;;;;;;;26.98;20.92;;;;;;;-139.48;100.00;61774.03;5032910;28;20350;-69
2022/03/03 10:56:44;;;;;;;33.10;20.00;;;;;;;-139.48;100.00;61774.03;5031798;28;20090;-69
2022/03/03 10:59:29;;;;;;;27.25;20.95;;;;;;;-139.48;100.00;61774.03;5031643;28;20045;-69
2022/03/03 11:02:13;;;;;;;27.65;21.63;;;;;;;-139.48;100.00;61774.03;5031841;28;20107;-69
2022/03/03 11:04:57;;;;;;;29.80;21.48;;;;;;;-139.48;100.00;61774.03;5032532;28;20087;-69
2022/03/03 11:07:43;;;;;;;24.02;20.27;;;;;;;-139.48;100.00;61774.03;5032700;28;20056;-65
2022/03/03 11:10:29;;;;;;;27.40;19.77;;;;;;;-139.48;100.00;61774.03;5031433;28;20060;-68
2022/03/03 11:13:13;;;;;;;27.15;21.65;;;;;;;-139.48;100.00;61774.03;5031693;28;20091;-69
2022/03/03 11:15:57;;;;;;;30.88;21.48;;;;;;;-139.48;100.00;61774.03;5031669;28;20111;-69
2022/03/03 11:18:41;;;;;;;26.33;20.52;;;;;;;-139.48;100.00;61774.03;5032574;28;20048;-69
2022/03/03 11:21:25;;;;;;;25.25;20.42;;;;;;;-139.48;100.00;61774.03;5031531;28;20049;-70
2022/03/03 11:24:10;;;;;;;;;;;;;;;-139.48;100.00;61774.03;5032105;28;20053;-67
2022/03/03 11:26:59;;;;;;;24.13;19.42;;;;;;;-139.48;100.00;61774.03;5032339;28;19920;-64
2022/03/03 11:30:21;;;;;;;26.92;20.23;;;;;;;-139.48;100.00;61774.03;5031217;28;20056;-67
2022/03/03 11:33:26;;;;;;;26.67;20.85;;;;;;;-139.48;100.00;61774.03;5031407;28;20049;-66
2022/03/03 11:36:12;;;;;;;;;;;;;;;-139.48;100.00;61774.03;5031658;28;20532;-68
2022/03/03 11:39:01;;;;;;;34.30;22.42;;;;;;;-139.48;100.00;61774.03;5031338;28;19919;-68
2022/03/03 11:41:46;;;;;;;26.58;21.02;;;;;;;-139.48;100.00;61774.03;5031455;28;20406;-67
2022/03/03 11:44:34;;;;;;;28.08;21.48;;;;;;;-139.48;100.00;61774.03;5031415;28;20068;-67
2022/03/03 11:47:30;;;;;;;25.60;20.35;;;;;;;-139.48;100.00;61774.03;5031552;28;20052;-68
2022/03/03 11:50:25;;;;;;;25.77;21.55;;;;;;;-139.48;100.00;61774.03;5032007;28;20102;-68
2022/03/03 11:53:09;;;;;;;30.55;20.70;;;;;;;-139.48;100.00;61774.03;5031550;28;20136;-68
2022/03/03 11:56:00;;;;;;;;;;;;;;;-139.48;100.00;61774.03;5033041;28;20408;-68
2022/03/03 11:58:44;;;;;;;31.45;22.98;;;;;;;-139.48;100.00;61774.03;5032273;28;19920;-68
2022/03/03 12:01:54;;;;;;;29.45;22.00;;;;;;;-139.48;100.00;61774.03;5032141;28;20164;-68
2022/03/03 12:04:38;;;;;;;29.60;21.85;;;;;;;-139.48;100.00;61774.03;5035979;28;20566;-68
2022/03/03 12:07:28;;;;;;;;;;;;;;;-139.48;100.00;61774.03;5036045;28;20528;-68
2022/03/03 12:10:18;;;;;;;32.22;22.92;;;;;;;-139.48;100.00;61774.03;5034766;28;19920;-68
2022/03/03 12:13:26;;;;;;;31.38;23.35;;;;;;;-139.48;100.00;61774.03;5034668;28;20039;-67
2022/03/03 12:16:28;;;;;;;30.92;22.77;;;;;;;-139.48;100.00;61774.03;5034533;28;20041;-68
2022/03/03 12:19:14;;;;;;;31.23;22.83;;;;;;;-139.48;100.00;61774.03;5034239;28;20048;-68
2022/03/03 12:22:01;;;;;;;31.30;23.17;;;;;;;-139.48;100.00;61774.03;5035608;28;20057;-68
2022/03/03 12:24:46;;;;;;;40.75;32.97;;;;;;;-139.48;100.00;61774.03;5035347;28;20123;-71
2022/03/03 12:27:32;;;;;;;31.20;22.98;;;;;;;-139.48;100.00;61774.03;5020577;28;20095;-69
2022/03/03 12:30:18;;;;;;;30.25;22.00;;;;;;;-139.48;100.00;61774.03;5035382;28;20136;-70